sensor_id;sensor_type;location;lat;lon;timestamp;P1;durP1;ratioP1;P2;durP2;ratioP2
5014;SDS011;2526;51.060;4.228;2023-01-24T00:01:12;21.25;;;15.85;;
5014;SDS011;2526;51.060;4.228;2023-01-24T00:03:37;20.73;;;15.57;;
5014;SDS011;2526;51.060;4.228;2023-01-24T00:06:03;22.02;;;15.27;;
5014;SDS011;2526;51.060;4.228;2023-01-24T00:08:28;27.70;;;16.17;;
5014;SDS011;2526;51.060;4.228;2023-01-24T00:11:04;18.75;;;15.85;;
5014;SDS011;2526;51.060;4.228;2023-01-24T00:13:30;22.52;;;17.52;;
5014;SDS011;2526;51.060;4.228;2023-01-24T00:16:06;20.00;;;13.85;;
5014;SDS011;2526;51.060;4.228;2023-01-24T00:18:32;24.25;;;15.23;;
5014;SDS011;2526;51.060;4.228;2023-01-24T00:21:11;19.67;;;14.90;;
5014;SDS011;2526;51.060;4.228;2023-01-24T00:23:43;24.98;;;16.33;;
5014;SDS011;2526;51.060;4.228;2023-01-24T00:26:09;26.20;;;17.23;;
5014;SDS011;2526;51.060;4.228;2023-01-24T00:28:35;26.27;;;17.58;;
5014;SDS011;2526;51.060;4.228;2023-01-24T00:31:01;22.10;;;18.63;;
5014;SDS011;2526;51.060;4.228;2023-01-24T00:33:26;22.27;;;17.65;;
5014;SDS011;2526;51.060;4.228;2023-01-24T00:35:52;21.75;;;13.88;;
5014;SDS011;2526;51.060;4.228;2023-01-24T00:38:18;22.92;;;15.02;;
5014;SDS011;2526;51.060;4.228;2023-01-24T00:40:43;21.80;;;15.45;;
5014;SDS011;2526;51.060;4.228;2023-01-24T00:43:09;26.67;;;17.83;;
5014;SDS011;2526;51.060;4.228;2023-01-24T00:45:35;25.80;;;16.88;;
5014;SDS011;2526;51.060;4.228;2023-01-24T00:48:01;27.73;;;18.10;;
5014;SDS011;2526;51.060;4.228;2023-01-24T00:50:27;27.55;;;18.23;;
5014;SDS011;2526;51.060;4.228;2023-01-24T00:52:52;29.55;;;20.42;;
5014;SDS011;2526;51.060;4.228;2023-01-24T00:55:17;30.60;;;19.30;;
5014;SDS011;2526;51.060;4.228;2023-01-24T00:57:43;24.13;;;18.90;;
5014;SDS011;2526;51.060;4.228;2023-01-24T01:00:08;26.52;;;17.85;;
5014;SDS011;2526;51.060;4.228;2023-01-24T01:02:34;25.05;;;19.35;;
5014;SDS011;2526;51.060;4.228;2023-01-24T01:05:00;33.42;;;23.05;;
5014;SDS011;2526;51.060;4.228;2023-01-24T01:07:25;23.63;;;17.25;;
5014;SDS011;2526;51.060;4.228;2023-01-24T01:09:51;24.65;;;18.38;;
5014;SDS011;2526;51.060;4.228;2023-01-24T01:12:16;25.73;;;18.00;;
5014;SDS011;2526;51.060;4.228;2023-01-24T01:14:42;29.27;;;20.63;;
5014;SDS011;2526;51.060;4.228;2023-01-24T01:17:08;29.50;;;19.55;;
5014;SDS011;2526;51.060;4.228;2023-01-24T01:19:34;30.80;;;21.08;;
5014;SDS011;2526;51.060;4.228;2023-01-24T01:21:59;35.38;;;24.45;;
5014;SDS011;2526;51.060;4.228;2023-01-24T01:24:25;31.67;;;20.48;;
5014;SDS011;2526;51.060;4.228;2023-01-24T01:26:50;32.72;;;21.42;;
5014;SDS011;2526;51.060;4.228;2023-01-24T01:29:16;32.90;;;23.63;;
5014;SDS011;2526;51.060;4.228;2023-01-24T01:31:41;36.25;;;23.83;;
5014;SDS011;2526;51.060;4.228;2023-01-24T01:34:07;31.15;;;21.20;;
5014;SDS011;2526;51.060;4.228;2023-01-24T01:36:33;32.22;;;21.88;;
5014;SDS011;2526;51.060;4.228;2023-01-24T01:38:58;25.48;;;19.08;;
5014;SDS011;2526;51.060;4.228;2023-01-24T01:41:24;24.50;;;19.88;;
5014;SDS011;2526;51.060;4.228;2023-01-24T01:43:49;31.88;;;20.90;;
5014;SDS011;2526;51.060;4.228;2023-01-24T01:49:00;34.55;;;19.95;;
5014;SDS011;2526;51.060;4.228;2023-01-24T01:51:42;27.23;;;20.83;;
5014;SDS011;2526;51.060;4.228;2023-01-24T01:54:16;31.25;;;22.38;;
5014;SDS011;2526;51.060;4.228;2023-01-24T01:56:43;32.30;;;21.85;;
5014;SDS011;2526;51.060;4.228;2023-01-24T01:59:10;31.45;;;21.80;;
5014;SDS011;2526;51.060;4.228;2023-01-24T02:01:37;30.35;;;21.75;;
5014;SDS011;2526;51.060;4.228;2023-01-24T02:04:10;29.17;;;21.38;;
5014;SDS011;2526;51.060;4.228;2023-01-24T02:06:43;28.73;;;21.30;;
5014;SDS011;2526;51.060;4.228;2023-01-24T02:09:11;29.65;;;20.27;;
5014;SDS011;2526;51.060;4.228;2023-01-24T02:11:38;30.67;;;19.83;;
5014;SDS011;2526;51.060;4.228;2023-01-24T02:14:04;34.78;;;20.52;;
5014;SDS011;2526;51.060;4.228;2023-01-24T02:16:49;34.63;;;23.67;;
5014;SDS011;2526;51.060;4.228;2023-01-24T02:21:46;33.35;;;20.92;;
5014;SDS011;2526;51.060;4.228;2023-01-24T02:24:18;28.52;;;18.00;;
5014;SDS011;2526;51.060;4.228;2023-01-24T02:26:44;31.55;;;20.27;;
5014;SDS011;2526;51.060;4.228;2023-01-24T02:29:10;28.90;;;19.15;;
5014;SDS011;2526;51.060;4.228;2023-01-24T02:31:56;26.00;;;18.80;;
5014;SDS011;2526;51.060;4.228;2023-01-24T02:34:22;25.55;;;16.27;;
5014;SDS011;2526;51.060;4.228;2023-01-24T02:36:49;24.77;;;17.33;;
5014;SDS011;2526;51.060;4.228;2023-01-24T02:39:16;28.65;;;17.00;;
5014;SDS011;2526;51.060;4.228;2023-01-24T02:41:44;21.88;;;16.35;;
5014;SDS011;2526;51.060;4.228;2023-01-24T02:44:11;24.50;;;18.98;;
5014;SDS011;2526;51.060;4.228;2023-01-24T02:46:38;23.77;;;17.77;;
5014;SDS011;2526;51.060;4.228;2023-01-24T02:49:10;21.10;;;15.70;;
5014;SDS011;2526;51.060;4.228;2023-01-24T02:51:36;21.30;;;16.85;;
5014;SDS011;2526;51.060;4.228;2023-01-24T02:54:20;23.20;;;15.45;;
5014;SDS011;2526;51.060;4.228;2023-01-24T02:56:45;22.63;;;16.63;;
5014;SDS011;2526;51.060;4.228;2023-01-24T02:59:29;23.48;;;16.08;;
5014;SDS011;2526;51.060;4.228;2023-01-24T03:01:55;26.45;;;15.07;;
5014;SDS011;2526;51.060;4.228;2023-01-24T03:04:20;24.52;;;17.52;;
5014;SDS011;2526;51.060;4.228;2023-01-24T03:06:46;23.77;;;17.02;;
5014;SDS011;2526;51.060;4.228;2023-01-24T03:09:14;22.67;;;16.30;;
5014;SDS011;2526;51.060;4.228;2023-01-24T03:11:58;23.23;;;16.02;;
5014;SDS011;2526;51.060;4.228;2023-01-24T03:14:42;21.35;;;13.95;;
5014;SDS011;2526;51.060;4.228;2023-01-24T03:17:28;20.13;;;14.15;;
5014;SDS011;2526;51.060;4.228;2023-01-24T03:20:12;37.33;;;18.55;;
5014;SDS011;2526;51.060;4.228;2023-01-24T03:22:56;23.33;;;15.82;;
5014;SDS011;2526;51.060;4.228;2023-01-24T03:25:40;23.88;;;15.38;;
5014;SDS011;2526;51.060;4.228;2023-01-24T03:31:08;16.48;;;11.80;;
5014;SDS011;2526;51.060;4.228;2023-01-24T03:33:52;21.90;;;14.80;;
5014;SDS011;2526;51.060;4.228;2023-01-24T03:36:36;27.20;;;13.10;;
5014;SDS011;2526;51.060;4.228;2023-01-24T03:39:01;24.50;;;14.45;;
5014;SDS011;2526;51.060;4.228;2023-01-24T03:44:10;19.83;;;12.65;;
5014;SDS011;2526;51.060;4.228;2023-01-24T03:46:36;24.63;;;15.55;;
5014;SDS011;2526;51.060;4.228;2023-01-24T03:49:08;16.85;;;13.30;;
5014;SDS011;2526;51.060;4.228;2023-01-24T03:51:34;22.52;;;15.23;;
5014;SDS011;2526;51.060;4.228;2023-01-24T03:54:18;20.77;;;14.18;;
5014;SDS011;2526;51.060;4.228;2023-01-24T03:56:43;19.08;;;15.70;;
5014;SDS011;2526;51.060;4.228;2023-01-24T03:59:09;19.85;;;15.27;;
5014;SDS011;2526;51.060;4.228;2023-01-24T04:01:34;25.05;;;15.45;;
5014;SDS011;2526;51.060;4.228;2023-01-24T04:04:00;16.05;;;11.35;;
5014;SDS011;2526;51.060;4.228;2023-01-24T04:06:25;24.67;;;14.32;;
5014;SDS011;2526;51.060;4.228;2023-01-24T04:08:51;20.85;;;14.25;;
5014;SDS011;2526;51.060;4.228;2023-01-24T04:11:16;23.65;;;14.90;;
5014;SDS011;2526;51.060;4.228;2023-01-24T04:13:42;23.70;;;14.18;;
5014;SDS011;2526;51.060;4.228;2023-01-24T04:16:08;21.65;;;14.73;;
5014;SDS011;2526;51.060;4.228;2023-01-24T04:18:33;23.10;;;13.73;;
5014;SDS011;2526;51.060;4.228;2023-01-24T04:21:02;20.60;;;14.25;;
5014;SDS011;2526;51.060;4.228;2023-01-24T04:23:27;27.80;;;16.20;;
5014;SDS011;2526;51.060;4.228;2023-01-24T04:25:53;23.17;;;16.80;;
5014;SDS011;2526;51.060;4.228;2023-01-24T04:28:22;22.55;;;13.82;;
5014;SDS011;2526;51.060;4.228;2023-01-24T04:30:48;25.67;;;16.25;;
5014;SDS011;2526;51.060;4.228;2023-01-24T04:33:14;22.92;;;16.60;;
5014;SDS011;2526;51.060;4.228;2023-01-24T04:35:39;20.25;;;13.82;;
5014;SDS011;2526;51.060;4.228;2023-01-24T04:38:04;21.63;;;14.10;;
5014;SDS011;2526;51.060;4.228;2023-01-24T04:40:30;26.77;;;14.52;;
5014;SDS011;2526;51.060;4.228;2023-01-24T04:42:56;19.00;;;12.15;;
5014;SDS011;2526;51.060;4.228;2023-01-24T04:45:22;22.75;;;15.68;;
5014;SDS011;2526;51.060;4.228;2023-01-24T04:47:47;22.58;;;15.43;;
5014;SDS011;2526;51.060;4.228;2023-01-24T04:50:12;21.60;;;13.27;;
5014;SDS011;2526;51.060;4.228;2023-01-24T04:52:38;24.10;;;14.88;;
5014;SDS011;2526;51.060;4.228;2023-01-24T04:55:03;21.40;;;16.60;;
5014;SDS011;2526;51.060;4.228;2023-01-24T04:57:29;26.00;;;17.27;;
5014;SDS011;2526;51.060;4.228;2023-01-24T04:59:55;21.88;;;15.13;;
5014;SDS011;2526;51.060;4.228;2023-01-24T05:02:20;19.35;;;13.60;;
5014;SDS011;2526;51.060;4.228;2023-01-24T05:04:46;21.17;;;14.55;;
5014;SDS011;2526;51.060;4.228;2023-01-24T05:07:12;23.25;;;14.05;;
5014;SDS011;2526;51.060;4.228;2023-01-24T05:09:37;23.55;;;14.43;;
5014;SDS011;2526;51.060;4.228;2023-01-24T05:12:03;26.83;;;15.32;;
5014;SDS011;2526;51.060;4.228;2023-01-24T05:14:28;23.95;;;13.48;;
5014;SDS011;2526;51.060;4.228;2023-01-24T05:16:54;32.75;;;17.40;;
5014;SDS011;2526;51.060;4.228;2023-01-24T05:19:19;21.77;;;14.45;;
5014;SDS011;2526;51.060;4.228;2023-01-24T05:21:44;26.75;;;15.00;;
5014;SDS011;2526;51.060;4.228;2023-01-24T05:24:10;18.85;;;15.00;;
5014;SDS011;2526;51.060;4.228;2023-01-24T05:26:35;21.73;;;15.80;;
5014;SDS011;2526;51.060;4.228;2023-01-24T05:29:01;24.00;;;15.93;;
5014;SDS011;2526;51.060;4.228;2023-01-24T05:31:26;21.73;;;13.63;;
5014;SDS011;2526;51.060;4.228;2023-01-24T05:33:52;24.27;;;14.05;;
5014;SDS011;2526;51.060;4.228;2023-01-24T05:36:19;21.85;;;14.15;;
5014;SDS011;2526;51.060;4.228;2023-01-24T05:38:45;20.05;;;13.23;;
5014;SDS011;2526;51.060;4.228;2023-01-24T05:41:11;20.65;;;14.38;;
5014;SDS011;2526;51.060;4.228;2023-01-24T05:43:38;26.42;;;16.90;;
5014;SDS011;2526;51.060;4.228;2023-01-24T05:46:05;25.27;;;16.95;;
5014;SDS011;2526;51.060;4.228;2023-01-24T05:48:30;17.52;;;13.07;;
5014;SDS011;2526;51.060;4.228;2023-01-24T05:51:06;25.05;;;15.40;;
5014;SDS011;2526;51.060;4.228;2023-01-24T05:53:32;21.67;;;13.40;;
5014;SDS011;2526;51.060;4.228;2023-01-24T05:55:59;21.90;;;14.02;;
5014;SDS011;2526;51.060;4.228;2023-01-24T05:58:25;22.63;;;14.10;;
5014;SDS011;2526;51.060;4.228;2023-01-24T06:00:51;25.20;;;14.60;;
5014;SDS011;2526;51.060;4.228;2023-01-24T06:03:16;22.90;;;14.32;;
5014;SDS011;2526;51.060;4.228;2023-01-24T06:05:48;20.13;;;13.48;;
5014;SDS011;2526;51.060;4.228;2023-01-24T06:08:14;23.00;;;15.23;;
5014;SDS011;2526;51.060;4.228;2023-01-24T06:10:40;18.85;;;13.52;;
5014;SDS011;2526;51.060;4.228;2023-01-24T06:13:05;22.92;;;14.13;;
5014;SDS011;2526;51.060;4.228;2023-01-24T06:15:31;24.95;;;16.75;;
5014;SDS011;2526;51.060;4.228;2023-01-24T06:17:56;23.73;;;15.65;;
5014;SDS011;2526;51.060;4.228;2023-01-24T06:20:22;23.13;;;14.60;;
5014;SDS011;2526;51.060;4.228;2023-01-24T06:22:51;24.77;;;15.38;;
5014;SDS011;2526;51.060;4.228;2023-01-24T06:25:21;25.95;;;16.88;;
5014;SDS011;2526;51.060;4.228;2023-01-24T06:27:47;24.02;;;16.58;;
5014;SDS011;2526;51.060;4.228;2023-01-24T06:30:13;24.77;;;16.08;;
5014;SDS011;2526;51.060;4.228;2023-01-24T06:35:16;30.92;;;17.13;;
5014;SDS011;2526;51.060;4.228;2023-01-24T06:37:50;19.30;;;13.32;;
5014;SDS011;2526;51.060;4.228;2023-01-24T06:40:17;28.40;;;15.60;;
5014;SDS011;2526;51.060;4.228;2023-01-24T06:42:43;22.73;;;14.02;;
5014;SDS011;2526;51.060;4.228;2023-01-24T06:45:09;27.00;;;16.38;;
5014;SDS011;2526;51.060;4.228;2023-01-24T06:47:35;21.60;;;13.20;;
5014;SDS011;2526;51.060;4.228;2023-01-24T06:50:00;26.45;;;16.95;;
5014;SDS011;2526;51.060;4.228;2023-01-24T06:52:27;26.25;;;16.35;;
5014;SDS011;2526;51.060;4.228;2023-01-24T06:54:52;24.45;;;15.98;;
5014;SDS011;2526;51.060;4.228;2023-01-24T06:57:18;24.65;;;17.10;;
5014;SDS011;2526;51.060;4.228;2023-01-24T06:59:43;22.05;;;14.05;;
5014;SDS011;2526;51.060;4.228;2023-01-24T07:02:09;24.65;;;16.40;;
5014;SDS011;2526;51.060;4.228;2023-01-24T07:04:34;23.63;;;15.45;;
5014;SDS011;2526;51.060;4.228;2023-01-24T07:07:02;25.23;;;14.18;;
5014;SDS011;2526;51.060;4.228;2023-01-24T07:09:27;23.08;;;16.17;;
5014;SDS011;2526;51.060;4.228;2023-01-24T07:11:53;21.00;;;14.70;;
5014;SDS011;2526;51.060;4.228;2023-01-24T07:14:20;22.75;;;14.60;;
5014;SDS011;2526;51.060;4.228;2023-01-24T07:16:45;21.70;;;14.38;;
5014;SDS011;2526;51.060;4.228;2023-01-24T07:19:15;22.52;;;12.80;;
5014;SDS011;2526;51.060;4.228;2023-01-24T07:21:41;26.08;;;16.05;;
5014;SDS011;2526;51.060;4.228;2023-01-24T07:24:16;25.77;;;14.88;;
5014;SDS011;2526;51.060;4.228;2023-01-24T07:26:42;30.35;;;16.40;;
5014;SDS011;2526;51.060;4.228;2023-01-24T07:29:08;26.90;;;15.88;;
5014;SDS011;2526;51.060;4.228;2023-01-24T07:31:33;23.80;;;15.18;;
5014;SDS011;2526;51.060;4.228;2023-01-24T07:33:59;22.95;;;16.73;;
5014;SDS011;2526;51.060;4.228;2023-01-24T07:36:24;22.08;;;16.65;;
5014;SDS011;2526;51.060;4.228;2023-01-24T07:38:53;25.80;;;15.65;;
5014;SDS011;2526;51.060;4.228;2023-01-24T07:41:19;30.23;;;17.30;;
5014;SDS011;2526;51.060;4.228;2023-01-24T07:43:44;24.95;;;17.08;;
5014;SDS011;2526;51.060;4.228;2023-01-24T07:46:10;22.15;;;15.77;;
5014;SDS011;2526;51.060;4.228;2023-01-24T07:48:35;26.35;;;16.70;;
5014;SDS011;2526;51.060;4.228;2023-01-24T07:51:01;21.92;;;14.48;;
5014;SDS011;2526;51.060;4.228;2023-01-24T07:53:26;26.63;;;16.00;;
5014;SDS011;2526;51.060;4.228;2023-01-24T07:55:53;23.67;;;15.68;;
5014;SDS011;2526;51.060;4.228;2023-01-24T07:58:18;30.58;;;16.95;;
5014;SDS011;2526;51.060;4.228;2023-01-24T08:00:44;23.88;;;16.58;;
5014;SDS011;2526;51.060;4.228;2023-01-24T08:03:09;23.83;;;16.92;;
5014;SDS011;2526;51.060;4.228;2023-01-24T08:05:38;30.67;;;17.45;;
5014;SDS011;2526;51.060;4.228;2023-01-24T08:08:04;28.52;;;19.80;;
5014;SDS011;2526;51.060;4.228;2023-01-24T08:10:29;21.42;;;15.63;;
5014;SDS011;2526;51.060;4.228;2023-01-24T08:12:55;28.42;;;18.23;;
5014;SDS011;2526;51.060;4.228;2023-01-24T08:15:21;24.95;;;15.88;;
5014;SDS011;2526;51.060;4.228;2023-01-24T08:17:47;22.77;;;15.30;;
5014;SDS011;2526;51.060;4.228;2023-01-24T08:20:13;25.80;;;18.20;;
5014;SDS011;2526;51.060;4.228;2023-01-24T08:22:39;24.00;;;17.33;;
5014;SDS011;2526;51.060;4.228;2023-01-24T08:25:05;27.58;;;16.85;;
5014;SDS011;2526;51.060;4.228;2023-01-24T08:27:30;23.55;;;16.05;;
5014;SDS011;2526;51.060;4.228;2023-01-24T08:29:56;24.80;;;16.27;;
5014;SDS011;2526;51.060;4.228;2023-01-24T08:32:22;19.75;;;15.20;;
5014;SDS011;2526;51.060;4.228;2023-01-24T08:34:47;22.05;;;15.68;;
5014;SDS011;2526;51.060;4.228;2023-01-24T08:37:13;25.40;;;18.42;;
5014;SDS011;2526;51.060;4.228;2023-01-24T08:39:38;23.10;;;15.25;;
5014;SDS011;2526;51.060;4.228;2023-01-24T08:42:04;30.65;;;18.88;;
5014;SDS011;2526;51.060;4.228;2023-01-24T08:44:29;24.75;;;17.13;;
5014;SDS011;2526;51.060;4.228;2023-01-24T08:46:55;27.77;;;19.27;;
5014;SDS011;2526;51.060;4.228;2023-01-24T08:49:20;22.33;;;14.90;;
5014;SDS011;2526;51.060;4.228;2023-01-24T08:51:45;27.50;;;18.40;;
5014;SDS011;2526;51.060;4.228;2023-01-24T08:54:13;26.27;;;18.20;;
5014;SDS011;2526;51.060;4.228;2023-01-24T08:56:38;23.55;;;14.93;;
5014;SDS011;2526;51.060;4.228;2023-01-24T08:59:04;28.98;;;18.35;;
5014;SDS011;2526;51.060;4.228;2023-01-24T09:01:29;24.92;;;17.08;;
5014;SDS011;2526;51.060;4.228;2023-01-24T09:03:57;30.55;;;17.65;;
5014;SDS011;2526;51.060;4.228;2023-01-24T09:06:24;30.88;;;18.90;;
5014;SDS011;2526;51.060;4.228;2023-01-24T09:08:53;23.27;;;16.58;;
5014;SDS011;2526;51.060;4.228;2023-01-24T09:11:20;21.63;;;16.80;;
5014;SDS011;2526;51.060;4.228;2023-01-24T09:13:45;24.60;;;16.88;;
5014;SDS011;2526;51.060;4.228;2023-01-24T09:16:11;22.40;;;17.55;;
5014;SDS011;2526;51.060;4.228;2023-01-24T09:18:36;21.83;;;14.75;;
5014;SDS011;2526;51.060;4.228;2023-01-24T09:21:02;27.27;;;16.13;;
5014;SDS011;2526;51.060;4.228;2023-01-24T09:23:28;23.50;;;16.52;;
5014;SDS011;2526;51.060;4.228;2023-01-24T09:25:53;24.83;;;16.15;;
5014;SDS011;2526;51.060;4.228;2023-01-24T09:28:21;22.70;;;16.50;;
5014;SDS011;2526;51.060;4.228;2023-01-24T09:30:49;21.02;;;15.65;;
5014;SDS011;2526;51.060;4.228;2023-01-24T09:33:16;27.33;;;18.92;;
5014;SDS011;2526;51.060;4.228;2023-01-24T09:35:49;23.88;;;15.77;;
5014;SDS011;2526;51.060;4.228;2023-01-24T09:38:15;21.90;;;15.88;;
5014;SDS011;2526;51.060;4.228;2023-01-24T09:40:45;28.83;;;19.08;;
5014;SDS011;2526;51.060;4.228;2023-01-24T09:46:04;28.58;;;19.42;;
5014;SDS011;2526;51.060;4.228;2023-01-24T09:48:34;30.67;;;20.23;;
5014;SDS011;2526;51.060;4.228;2023-01-24T09:51:01;25.27;;;19.02;;
5014;SDS011;2526;51.060;4.228;2023-01-24T09:53:39;25.17;;;17.48;;
5014;SDS011;2526;51.060;4.228;2023-01-24T09:56:05;31.13;;;19.23;;
5014;SDS011;2526;51.060;4.228;2023-01-24T09:58:40;22.67;;;17.38;;
5014;SDS011;2526;51.060;4.228;2023-01-24T10:01:09;25.73;;;18.88;;
5014;SDS011;2526;51.060;4.228;2023-01-24T10:03:35;22.23;;;18.45;;
5014;SDS011;2526;51.060;4.228;2023-01-24T10:13:53;26.60;;;18.58;;
5014;SDS011;2526;51.060;4.228;2023-01-24T10:24:23;32.08;;;20.23;;
5014;SDS011;2526;51.060;4.228;2023-01-24T10:26:50;23.67;;;17.40;;
5014;SDS011;2526;51.060;4.228;2023-01-24T10:31:48;29.08;;;18.70;;
5014;SDS011;2526;51.060;4.228;2023-01-24T10:34:18;26.70;;;19.67;;
5014;SDS011;2526;51.060;4.228;2023-01-24T10:36:49;26.77;;;17.95;;
5014;SDS011;2526;51.060;4.228;2023-01-24T10:39:16;23.77;;;15.20;;
5014;SDS011;2526;51.060;4.228;2023-01-24T10:41:41;27.13;;;17.13;;
5014;SDS011;2526;51.060;4.228;2023-01-24T10:44:14;21.77;;;16.15;;
5014;SDS011;2526;51.060;4.228;2023-01-24T10:49:28;26.55;;;19.25;;
5014;SDS011;2526;51.060;4.228;2023-01-24T10:54:45;23.73;;;15.88;;
5014;SDS011;2526;51.060;4.228;2023-01-24T10:57:14;28.92;;;18.17;;
5014;SDS011;2526;51.060;4.228;2023-01-24T10:59:42;21.73;;;18.02;;
5014;SDS011;2526;51.060;4.228;2023-01-24T11:02:09;31.13;;;17.73;;
5014;SDS011;2526;51.060;4.228;2023-01-24T11:04:43;25.63;;;18.42;;
5014;SDS011;2526;51.060;4.228;2023-01-24T11:07:19;29.75;;;17.98;;
5014;SDS011;2526;51.060;4.228;2023-01-24T11:09:50;27.63;;;17.80;;
5014;SDS011;2526;51.060;4.228;2023-01-24T11:12:16;28.55;;;15.80;;
5014;SDS011;2526;51.060;4.228;2023-01-24T11:14:43;26.77;;;19.58;;
5014;SDS011;2526;51.060;4.228;2023-01-24T11:17:27;30.88;;;21.20;;
5014;SDS011;2526;51.060;4.228;2023-01-24T11:19:57;26.67;;;18.77;;
5014;SDS011;2526;51.060;4.228;2023-01-24T11:22:24;23.67;;;16.20;;
5014;SDS011;2526;51.060;4.228;2023-01-24T11:24:50;28.23;;;16.73;;
5014;SDS011;2526;51.060;4.228;2023-01-24T11:27:20;24.40;;;16.95;;
5014;SDS011;2526;51.060;4.228;2023-01-24T11:30:03;22.42;;;15.68;;
5014;SDS011;2526;51.060;4.228;2023-01-24T11:34:58;19.23;;;15.45;;
5014;SDS011;2526;51.060;4.228;2023-01-24T11:37:35;25.75;;;15.88;;
5014;SDS011;2526;51.060;4.228;2023-01-24T11:48:00;22.30;;;12.95;;
5014;SDS011;2526;51.060;4.228;2023-01-24T11:59:21;20.40;;;13.75;;
5014;SDS011;2526;51.060;4.228;2023-01-24T12:05:13;22.13;;;16.55;;
5014;SDS011;2526;51.060;4.228;2023-01-24T12:08:03;26.48;;;18.02;;
5014;SDS011;2526;51.060;4.228;2023-01-24T12:13:16;20.35;;;13.07;;
5014;SDS011;2526;51.060;4.228;2023-01-24T12:15:54;19.98;;;14.48;;
5014;SDS011;2526;51.060;4.228;2023-01-24T12:18:31;23.45;;;16.08;;
5014;SDS011;2526;51.060;4.228;2023-01-24T12:21:08;22.33;;;14.60;;
5014;SDS011;2526;51.060;4.228;2023-01-24T12:26:05;21.08;;;13.77;;
5014;SDS011;2526;51.060;4.228;2023-01-24T12:28:38;21.50;;;16.27;;
5014;SDS011;2526;51.060;4.228;2023-01-24T12:31:04;16.65;;;12.18;;
5014;SDS011;2526;51.060;4.228;2023-01-24T12:33:43;19.73;;;14.00;;
5014;SDS011;2526;51.060;4.228;2023-01-24T12:38:49;19.27;;;15.05;;
5014;SDS011;2526;51.060;4.228;2023-01-24T12:44:03;22.83;;;14.95;;
5014;SDS011;2526;51.060;4.228;2023-01-24T12:46:38;18.48;;;12.82;;
5014;SDS011;2526;51.060;4.228;2023-01-24T12:51:43;25.10;;;16.63;;
5014;SDS011;2526;51.060;4.228;2023-01-24T12:54:30;24.05;;;16.10;;
5014;SDS011;2526;51.060;4.228;2023-01-24T12:59:41;21.17;;;12.45;;
5014;SDS011;2526;51.060;4.228;2023-01-24T13:02:16;23.17;;;14.00;;
5014;SDS011;2526;51.060;4.228;2023-01-24T13:09:47;21.20;;;13.38;;
5014;SDS011;2526;51.060;4.228;2023-01-24T13:12:19;18.13;;;11.23;;
5014;SDS011;2526;51.060;4.228;2023-01-24T13:14:52;18.63;;;12.88;;
5014;SDS011;2526;51.060;4.228;2023-01-24T13:27:55;15.75;;;12.13;;
5014;SDS011;2526;51.060;4.228;2023-01-24T13:32:50;23.42;;;14.70;;
5014;SDS011;2526;51.060;4.228;2023-01-24T13:35:22;23.27;;;15.07;;
5014;SDS011;2526;51.060;4.228;2023-01-24T13:42:42;26.33;;;17.88;;
5014;SDS011;2526;51.060;4.228;2023-01-24T13:53:57;21.85;;;14.77;;
5014;SDS011;2526;51.060;4.228;2023-01-24T13:56:20;25.08;;;15.05;;
5014;SDS011;2526;51.060;4.228;2023-01-24T13:58:46;17.27;;;13.32;;
5014;SDS011;2526;51.060;4.228;2023-01-24T14:01:15;20.98;;;13.30;;
5014;SDS011;2526;51.060;4.228;2023-01-24T14:03:41;24.08;;;14.45;;
5014;SDS011;2526;51.060;4.228;2023-01-24T14:06:16;26.10;;;16.95;;
5014;SDS011;2526;51.060;4.228;2023-01-24T14:08:49;21.85;;;13.05;;
5014;SDS011;2526;51.060;4.228;2023-01-24T14:18:49;29.88;;;14.23;;
5014;SDS011;2526;51.060;4.228;2023-01-24T14:21:20;28.02;;;16.35;;
5014;SDS011;2526;51.060;4.228;2023-01-24T14:23:47;25.98;;;16.67;;
5014;SDS011;2526;51.060;4.228;2023-01-24T14:26:17;30.05;;;19.52;;
5014;SDS011;2526;51.060;4.228;2023-01-24T14:28:51;23.00;;;16.38;;
5014;SDS011;2526;51.060;4.228;2023-01-24T14:31:31;29.23;;;15.80;;
5014;SDS011;2526;51.060;4.228;2023-01-24T14:34:11;21.85;;;16.05;;
5014;SDS011;2526;51.060;4.228;2023-01-24T14:36:37;22.10;;;15.68;;
5014;SDS011;2526;51.060;4.228;2023-01-24T14:41:46;22.08;;;14.10;;
5014;SDS011;2526;51.060;4.228;2023-01-24T14:44:16;26.65;;;18.05;;
5014;SDS011;2526;51.060;4.228;2023-01-24T14:46:41;26.42;;;17.17;;
5014;SDS011;2526;51.060;4.228;2023-01-24T14:49:13;35.05;;;15.95;;
5014;SDS011;2526;51.060;4.228;2023-01-24T14:51:43;29.83;;;19.92;;
5014;SDS011;2526;51.060;4.228;2023-01-24T14:54:18;22.23;;;15.75;;
5014;SDS011;2526;51.060;4.228;2023-01-24T14:56:45;16.35;;;13.52;;
5014;SDS011;2526;51.060;4.228;2023-01-24T14:59:11;29.27;;;18.70;;
5014;SDS011;2526;51.060;4.228;2023-01-24T15:01:37;25.90;;;18.42;;
5014;SDS011;2526;51.060;4.228;2023-01-24T15:04:02;21.02;;;14.68;;
5014;SDS011;2526;51.060;4.228;2023-01-24T15:06:29;29.73;;;18.35;;
5014;SDS011;2526;51.060;4.228;2023-01-24T15:08:56;21.52;;;15.02;;
5014;SDS011;2526;51.060;4.228;2023-01-24T15:11:25;22.23;;;14.50;;
5014;SDS011;2526;51.060;4.228;2023-01-24T15:13:56;23.83;;;18.10;;
5014;SDS011;2526;51.060;4.228;2023-01-24T15:16:24;24.63;;;17.05;;
5014;SDS011;2526;51.060;4.228;2023-01-24T15:18:54;26.70;;;17.92;;
5014;SDS011;2526;51.060;4.228;2023-01-24T15:21:26;30.95;;;22.10;;
5014;SDS011;2526;51.060;4.228;2023-01-24T15:23:54;24.65;;;19.25;;
5014;SDS011;2526;51.060;4.228;2023-01-24T15:26:31;30.63;;;20.55;;
5014;SDS011;2526;51.060;4.228;2023-01-24T15:28:57;26.95;;;21.27;;
5014;SDS011;2526;51.060;4.228;2023-01-24T15:31:26;26.10;;;21.48;;
5014;SDS011;2526;51.060;4.228;2023-01-24T15:34:00;24.70;;;18.63;;
5014;SDS011;2526;51.060;4.228;2023-01-24T15:36:26;27.40;;;20.20;;
5014;SDS011;2526;51.060;4.228;2023-01-24T15:38:53;26.42;;;18.17;;
5014;SDS011;2526;51.060;4.228;2023-01-24T15:41:20;27.48;;;19.55;;
5014;SDS011;2526;51.060;4.228;2023-01-24T15:43:49;34.28;;;21.13;;
5014;SDS011;2526;51.060;4.228;2023-01-24T15:46:24;31.33;;;23.58;;
5014;SDS011;2526;51.060;4.228;2023-01-24T15:54:28;32.80;;;21.52;;
5014;SDS011;2526;51.060;4.228;2023-01-24T15:56:54;36.75;;;23.73;;
5014;SDS011;2526;51.060;4.228;2023-01-24T15:59:20;34.20;;;23.40;;
5014;SDS011;2526;51.060;4.228;2023-01-24T16:01:47;33.05;;;23.75;;
5014;SDS011;2526;51.060;4.228;2023-01-24T16:04:13;28.83;;;20.65;;
5014;SDS011;2526;51.060;4.228;2023-01-24T16:06:42;32.17;;;24.35;;
5014;SDS011;2526;51.060;4.228;2023-01-24T16:09:07;37.80;;;26.05;;
5014;SDS011;2526;51.060;4.228;2023-01-24T16:11:41;32.05;;;24.05;;
5014;SDS011;2526;51.060;4.228;2023-01-24T16:14:07;31.80;;;25.52;;
5014;SDS011;2526;51.060;4.228;2023-01-24T16:16:35;40.28;;;25.23;;
5014;SDS011;2526;51.060;4.228;2023-01-24T16:19:01;37.58;;;25.00;;
5014;SDS011;2526;51.060;4.228;2023-01-24T16:21:26;37.22;;;24.98;;
5014;SDS011;2526;51.060;4.228;2023-01-24T16:23:52;41.33;;;28.38;;
5014;SDS011;2526;51.060;4.228;2023-01-24T16:26:24;42.33;;;27.30;;
5014;SDS011;2526;51.060;4.228;2023-01-24T16:28:50;39.65;;;25.88;;
5014;SDS011;2526;51.060;4.228;2023-01-24T16:31:15;33.85;;;25.85;;
5014;SDS011;2526;51.060;4.228;2023-01-24T16:33:41;39.40;;;27.52;;
5014;SDS011;2526;51.060;4.228;2023-01-24T16:36:07;34.20;;;25.95;;
5014;SDS011;2526;51.060;4.228;2023-01-24T16:38:34;43.40;;;27.80;;
5014;SDS011;2526;51.060;4.228;2023-01-24T16:41:01;40.53;;;26.05;;
5014;SDS011;2526;51.060;4.228;2023-01-24T16:43:27;37.75;;;26.98;;
5014;SDS011;2526;51.060;4.228;2023-01-24T16:45:52;40.38;;;30.17;;
5014;SDS011;2526;51.060;4.228;2023-01-24T16:48:18;36.88;;;28.83;;
5014;SDS011;2526;51.060;4.228;2023-01-24T16:50:43;38.90;;;28.35;;
5014;SDS011;2526;51.060;4.228;2023-01-24T16:53:10;40.17;;;29.08;;
5014;SDS011;2526;51.060;4.228;2023-01-24T16:55:35;38.40;;;30.55;;
5014;SDS011;2526;51.060;4.228;2023-01-24T16:58:08;34.65;;;27.77;;
5014;SDS011;2526;51.060;4.228;2023-01-24T17:00:34;38.33;;;27.73;;